createdAt,value
2017-12-11T00:00:29.434Z,6.45
2017-12-11T00:02:56.207Z,6.15
2017-12-11T00:05:23.267Z,6.37
2017-12-11T00:07:50.435Z,5.60
2017-12-11T00:10:17.296Z,5.95
2017-12-11T00:12:44.751Z,6.35
2017-12-11T00:15:11.775Z,8.15
2017-12-11T00:17:38.803Z,7.57
2017-12-11T00:20:05.871Z,7.45
2017-12-11T00:22:38.711Z,6.68
2017-12-11T00:25:05.623Z,8.20
2017-12-11T00:27:33.602Z,8.40
2017-12-11T00:30:00.541Z,7.65
2017-12-11T00:32:27.639Z,6.85
2017-12-11T00:34:54.552Z,6.82
2017-12-11T00:37:21.319Z,7.05
2017-12-11T00:39:48.020Z,7.55
2017-12-11T00:42:15.130Z,7.37
2017-12-11T00:44:41.839Z,8.50
2017-12-11T00:47:09.020Z,8.70
2017-12-11T00:49:36.062Z,7.80
2017-12-11T00:52:02.785Z,7.57
2017-12-11T00:54:29.959Z,6.30
2017-12-11T00:56:57.111Z,7.05
2017-12-11T00:59:24.027Z,8.50
2017-12-11T01:01:50.933Z,7.45
2017-12-11T01:04:18.039Z,7.15
2017-12-11T01:06:45.226Z,7.90
2017-12-11T01:09:11.936Z,8.57
2017-12-11T01:11:38.851Z,9.20
2017-12-11T01:14:05.782Z,8.57
2017-12-11T01:16:32.459Z,9.68
2017-12-11T01:18:59.618Z,8.93
2017-12-11T01:21:26.319Z,11.00
2017-12-11T01:23:53.503Z,9.98
2017-12-11T01:26:20.430Z,11.12
2017-12-11T01:28:47.131Z,9.65
2017-12-11T01:31:14.154Z,9.93
2017-12-11T01:33:41.572Z,10.32
2017-12-11T01:36:08.621Z,9.40
2017-12-11T01:38:35.560Z,10.00
2017-12-11T01:41:02.958Z,10.38
2017-12-11T01:43:30.190Z,10.05
2017-12-11T01:45:57.358Z,9.95
2017-12-11T01:48:24.570Z,10.52
2017-12-11T01:50:51.603Z,10.38
2017-12-11T01:53:19.588Z,10.90
2017-12-11T01:55:46.280Z,10.95
2017-12-11T01:58:13.252Z,10.07
2017-12-11T02:00:39.937Z,10.55
2017-12-11T02:03:07.361Z,13.13
2017-12-11T02:05:34.846Z,11.82
2017-12-11T02:08:01.785Z,11.00
2017-12-11T02:10:28.752Z,11.75
2017-12-11T02:12:55.724Z,12.05
2017-12-11T02:15:23.163Z,12.00
2017-12-11T02:17:50.288Z,10.40
2017-12-11T02:20:17.271Z,10.10
2017-12-11T02:22:44.692Z,9.98
2017-12-11T02:25:11.696Z,10.25
2017-12-11T02:27:39.501Z,11.75
2017-12-11T02:30:06.242Z,10.05
2017-12-11T02:32:33.165Z,9.80
2017-12-11T02:35:00.300Z,10.35
2017-12-11T02:37:27.753Z,9.77
2017-12-11T02:39:54.828Z,9.77
2017-12-11T02:42:21.762Z,9.45
2017-12-11T02:44:48.886Z,9.65
2017-12-11T02:47:15.887Z,8.55
2017-12-11T02:49:42.587Z,10.90
2017-12-11T02:52:10.480Z,9.75
2017-12-11T02:54:38.409Z,10.25
2017-12-11T02:57:05.096Z,9.38
2017-12-11T02:59:32.133Z,8.32
2017-12-11T03:01:59.103Z,8.45
2017-12-11T03:04:25.790Z,8.85
2017-12-11T03:06:52.859Z,8.80
2017-12-11T03:09:19.863Z,8.70
2017-12-11T03:11:46.787Z,8.70
2017-12-11T03:14:13.814Z,9.57
2017-12-11T03:16:40.749Z,8.30
2017-12-11T03:19:08.151Z,8.63
2017-12-11T03:21:35.125Z,7.50
2017-12-11T03:24:02.237Z,9.40
2017-12-11T03:26:28.923Z,9.15
2017-12-11T03:28:56.012Z,10.25
2017-12-11T03:31:22.940Z,9.25
2017-12-11T03:33:50.027Z,11.45
2017-12-11T03:36:16.735Z,8.25
2017-12-11T03:38:43.763Z,9.05
2017-12-11T03:41:10.667Z,8.95
2017-12-11T03:43:37.696Z,9.23
2017-12-11T03:46:04.658Z,9.95
2017-12-11T03:48:31.704Z,10.73
2017-12-11T03:50:59.355Z,9.05
2017-12-11T03:53:26.216Z,8.07
2017-12-11T03:55:53.115Z,8.95
2017-12-11T03:58:20.179Z,9.10
2017-12-11T04:00:47.109Z,8.40
2017-12-11T04:03:14.270Z,9.55
2017-12-11T04:05:41.202Z,7.20
2017-12-11T04:08:08.107Z,8.32
2017-12-11T04:10:34.799Z,8.00
2017-12-11T04:13:01.728Z,8.75
2017-12-11T04:15:28.415Z,8.27
2017-12-11T04:17:55.444Z,11.12
2017-12-11T04:20:23.726Z,7.62
2017-12-11T04:22:50.860Z,8.27
2017-12-11T04:25:17.864Z,8.60
2017-12-11T04:27:46.116Z,10.15
2017-12-11T04:30:12.867Z,11.48
2017-12-11T04:32:39.898Z,13.32
2017-12-11T04:35:06.616Z,12.52
2017-12-11T04:37:33.318Z,15.70
2017-12-11T04:40:00.712Z,19.10
2017-12-11T04:42:27.440Z,21.00
2017-12-11T04:44:54.126Z,17.30
2017-12-11T04:47:21.114Z,12.70
2017-12-11T04:49:48.179Z,12.10
2017-12-11T04:52:15.311Z,10.57
2017-12-11T04:54:42.515Z,11.43
2017-12-11T04:57:09.606Z,10.30
2017-12-11T04:59:36.564Z,10.98
2017-12-11T05:02:03.632Z,11.30
2017-12-11T05:04:31.279Z,9.32
2017-12-11T05:06:58.775Z,9.60
2017-12-11T05:09:25.730Z,10.35
2017-12-11T05:11:52.804Z,9.98
2017-12-11T05:14:20.570Z,9.57
2017-12-11T05:16:47.283Z,10.25
2017-12-11T05:19:14.462Z,9.18
2017-12-11T05:21:41.543Z,8.40
2017-12-11T05:24:08.606Z,10.02
2017-12-11T05:26:35.371Z,8.65
2017-12-11T05:29:02.067Z,9.80
2017-12-11T05:31:29.127Z,9.07
2017-12-11T05:33:55.827Z,9.95
2017-12-11T05:36:22.531Z,8.93
2017-12-11T05:38:49.234Z,10.23
2017-12-11T05:41:16.166Z,9.85
2017-12-11T05:43:43.224Z,9.93
2017-12-11T05:46:10.262Z,11.95
2017-12-11T05:48:37.008Z,10.70
2017-12-11T05:51:04.283Z,10.10
2017-12-11T05:53:31.355Z,10.43
2017-12-11T05:55:59.946Z,8.80
2017-12-11T05:58:27.217Z,10.73
2017-12-11T06:00:54.685Z,10.70
2017-12-11T06:03:21.795Z,12.45
2017-12-11T06:05:48.779Z,10.45
2017-12-11T06:08:15.825Z,10.43
2017-12-11T06:10:42.792Z,10.18
2017-12-11T06:13:09.495Z,9.45
2017-12-11T06:15:36.195Z,10.10
2017-12-11T06:18:02.922Z,11.73
2017-12-11T06:20:29.960Z,9.57
2017-12-11T06:22:57.040Z,9.82
2017-12-11T06:25:24.725Z,10.82
2017-12-11T06:27:51.783Z,11.10
2017-12-11T06:30:20.748Z,9.95
2017-12-11T06:32:47.471Z,11.68
2017-12-11T06:35:14.167Z,12.55
2017-12-11T06:37:40.887Z,11.27
2017-12-11T06:40:07.947Z,13.60
2017-12-11T06:42:35.611Z,12.98
2017-12-11T06:45:02.644Z,16.37
2017-12-11T06:47:30.924Z,10.90
2017-12-11T06:49:57.855Z,11.50
2017-12-11T06:52:26.585Z,15.32
2017-12-11T06:54:54.463Z,11.10
2017-12-11T06:57:28.112Z,12.73
2017-12-11T06:59:55.663Z,11.32
2017-12-11T07:02:22.592Z,11.35
2017-12-11T07:04:49.703Z,11.25
2017-12-11T07:07:17.333Z,11.00
2017-12-11T07:09:44.272Z,12.37
2017-12-11T07:12:11.358Z,12.80
2017-12-11T07:14:38.347Z,10.90
2017-12-11T07:17:05.347Z,13.55
2017-12-11T07:19:32.387Z,14.48
2017-12-11T07:21:59.314Z,14.77
2017-12-11T07:24:26.306Z,14.95
2017-12-11T07:26:53.346Z,13.70
2017-12-11T07:29:20.637Z,14.10
2017-12-11T07:31:48.203Z,13.45
2017-12-11T07:34:15.166Z,12.25
2017-12-11T07:36:42.163Z,13.32
2017-12-11T07:39:09.344Z,10.88
2017-12-11T07:41:37.124Z,12.60
2017-12-11T07:44:07.725Z,12.35
2017-12-11T07:46:34.436Z,12.07
2017-12-11T07:49:01.159Z,13.62
2017-12-11T07:51:28.167Z,14.73
2017-12-11T07:53:55.159Z,14.13
2017-12-11T07:56:22.231Z,13.02
2017-12-11T07:58:49.270Z,14.87
2017-12-11T08:01:16.439Z,13.77
2017-12-11T08:03:43.412Z,14.95
2017-12-11T08:06:10.964Z,13.18
2017-12-11T08:08:38.035Z,16.17
2017-12-11T08:11:06.594Z,13.30
2017-12-11T08:13:33.722Z,13.15
2017-12-11T08:16:00.498Z,13.88
2017-12-11T08:18:27.272Z,14.90
2017-12-11T08:20:54.467Z,12.73
2017-12-11T08:23:21.593Z,14.18
2017-12-11T08:25:49.127Z,15.73
2017-12-11T08:28:15.834Z,16.17
2017-12-11T08:30:42.772Z,16.15
2017-12-11T08:33:09.734Z,13.88
2017-12-11T08:35:37.247Z,13.45
2017-12-11T08:38:04.948Z,13.40
2017-12-11T08:40:32.130Z,14.40
2017-12-11T08:42:59.083Z,13.48
2017-12-11T08:45:27.046Z,13.10
2017-12-11T08:47:54.047Z,13.65
2017-12-11T08:50:21.854Z,12.25
2017-12-11T08:52:48.947Z,12.20
2017-12-11T08:55:15.885Z,16.17
2017-12-11T08:57:42.809Z,13.50
2017-12-11T09:00:09.956Z,12.75
2017-12-11T09:02:36.885Z,16.83
2017-12-11T09:05:03.870Z,13.00
2017-12-11T09:07:30.935Z,14.50
2017-12-11T09:09:58.564Z,15.77
2017-12-11T09:12:26.377Z,12.40
2017-12-11T09:14:53.343Z,14.52
2017-12-11T09:17:20.261Z,13.07
2017-12-11T09:19:47.951Z,13.57
2017-12-11T09:22:14.967Z,13.62
2017-12-11T09:24:41.921Z,13.73
2017-12-11T09:27:08.983Z,12.90
2017-12-11T09:29:37.174Z,13.75
2017-12-11T09:32:04.093Z,12.52
2017-12-11T09:34:31.129Z,13.07
2017-12-11T09:36:57.825Z,13.48
2017-12-11T09:39:24.543Z,12.88
2017-12-11T09:41:51.984Z,13.23
2017-12-11T09:44:20.815Z,12.27
2017-12-11T09:46:47.916Z,14.38
2017-12-11T09:49:14.854Z,13.07
2017-12-11T09:51:42.017Z,12.98
2017-12-11T09:54:08.727Z,12.18
2017-12-11T09:56:35.772Z,12.65
2017-12-11T09:59:02.465Z,13.60
2017-12-11T10:01:29.438Z,13.13
2017-12-11T10:03:56.642Z,15.68
2017-12-11T10:06:23.631Z,13.85
2017-12-11T10:08:50.326Z,13.05
2017-12-11T10:11:17.046Z,15.30
2017-12-11T10:13:44.810Z,15.55
2017-12-11T10:16:11.533Z,13.88
2017-12-11T10:18:38.544Z,17.48
2017-12-11T10:21:05.584Z,14.02
2017-12-11T10:23:32.551Z,14.48
2017-12-11T10:25:59.559Z,13.90
2017-12-11T10:28:26.578Z,15.80
2017-12-11T10:30:53.725Z,16.35
2017-12-11T10:33:20.772Z,15.35
2017-12-11T10:35:47.739Z,16.80
2017-12-11T10:38:14.964Z,18.40
2017-12-11T10:40:42.526Z,16.58
2017-12-11T10:43:09.502Z,17.23
2017-12-11T10:45:36.495Z,19.02
2017-12-11T10:48:03.420Z,19.92
2017-12-11T10:50:30.610Z,15.32
2017-12-11T10:52:57.545Z,19.48
2017-12-11T10:55:24.603Z,18.87
2017-12-11T10:57:51.644Z,16.73
2017-12-11T11:00:18.792Z,16.45
2017-12-11T11:02:45.772Z,19.55
2017-12-11T11:05:12.839Z,15.27
2017-12-11T11:07:39.879Z,16.30
2017-12-11T11:10:07.130Z,20.67
2017-12-11T11:12:34.077Z,19.02
2017-12-11T11:15:00.771Z,18.15
2017-12-11T11:17:27.914Z,21.60
2017-12-11T11:19:55.835Z,21.45
2017-12-11T11:22:22.951Z,24.75
2017-12-11T11:24:49.924Z,21.20
2017-12-11T11:27:16.865Z,19.92
2017-12-11T11:29:43.915Z,20.10
2017-12-11T11:32:11.088Z,19.08
2017-12-11T11:34:38.170Z,18.77
2017-12-11T11:37:05.119Z,21.50
2017-12-11T11:39:32.160Z,21.73
2017-12-11T11:41:58.906Z,20.42
2017-12-11T11:44:25.895Z,19.23
2017-12-11T11:46:52.874Z,17.37
2017-12-11T11:49:19.956Z,18.98
2017-12-11T11:51:47.176Z,19.80
2017-12-11T11:54:14.170Z,18.20
2017-12-11T11:56:41.388Z,23.90
2017-12-11T11:59:08.299Z,20.77
2017-12-11T12:01:35.866Z,22.77
2017-12-11T12:04:02.924Z,22.62
2017-12-11T12:06:29.647Z,20.00
2017-12-11T12:08:56.351Z,19.62
2017-12-11T12:11:23.542Z,17.67
2017-12-11T12:13:50.222Z,24.20
2017-12-11T12:16:17.435Z,17.15
2017-12-11T12:18:44.904Z,22.40
2017-12-11T12:21:11.610Z,19.67
2017-12-11T12:23:38.295Z,18.00
2017-12-11T12:26:05.026Z,17.98
2017-12-11T12:28:32.156Z,19.58
2017-12-11T12:30:58.843Z,16.23
2017-12-11T12:33:26.615Z,18.92
2017-12-11T12:35:53.299Z,17.23
2017-12-11T12:38:20.015Z,20.12
2017-12-11T12:40:46.726Z,21.67
2017-12-11T12:43:13.430Z,15.63
2017-12-11T12:45:40.600Z,19.75
2017-12-11T12:48:07.315Z,16.10
2017-12-11T12:50:34.012Z,18.08
2017-12-11T12:53:00.724Z,19.42
2017-12-11T12:55:27.406Z,16.02
2017-12-11T12:57:54.116Z,19.05
2017-12-11T13:00:20.796Z,18.87
2017-12-11T13:02:48.263Z,15.77
2017-12-11T13:05:14.955Z,13.75
2017-12-11T13:07:41.658Z,16.80
2017-12-11T13:10:08.342Z,16.20
2017-12-11T13:12:35.063Z,16.83
2017-12-11T13:15:01.757Z,15.52
2017-12-11T13:17:28.486Z,16.48
2017-12-11T13:19:55.194Z,15.50
2017-12-11T13:22:21.907Z,14.55
2017-12-11T13:24:48.595Z,13.23
2017-12-11T13:27:15.304Z,16.08
2017-12-11T13:29:41.996Z,16.42
2017-12-11T13:32:08.719Z,13.23
2017-12-11T13:34:35.418Z,13.80
2017-12-11T13:37:02.146Z,17.70
2017-12-11T13:39:28.832Z,17.23
2017-12-11T13:41:55.519Z,14.73
2017-12-11T13:44:22.235Z,14.52
2017-12-11T13:46:48.923Z,15.52
2017-12-11T13:49:15.635Z,16.25
2017-12-11T13:51:42.315Z,14.55
2017-12-11T13:54:09.015Z,12.68
2017-12-11T13:56:35.704Z,13.57
2017-12-11T13:59:02.411Z,16.90
2017-12-11T14:01:29.086Z,13.62
2017-12-11T14:03:55.783Z,15.82
2017-12-11T14:06:22.477Z,16.67
2017-12-11T14:08:49.196Z,18.90
2017-12-11T14:11:15.888Z,14.95
2017-12-11T14:13:42.599Z,16.33
2017-12-11T14:16:09.271Z,13.25
2017-12-11T14:18:35.976Z,15.43
2017-12-11T14:21:02.667Z,13.85
2017-12-11T14:23:29.363Z,14.05
2017-12-11T14:25:56.055Z,14.60
2017-12-11T14:28:22.755Z,13.30
2017-12-11T14:30:49.435Z,13.15
2017-12-11T14:33:16.136Z,11.45
2017-12-11T14:35:42.827Z,11.12
2017-12-11T14:38:09.527Z,11.00
2017-12-11T14:40:36.198Z,8.60
2017-12-11T14:43:02.916Z,11.02
2017-12-11T14:45:29.603Z,9.82
2017-12-11T14:47:56.315Z,10.48
2017-12-11T14:50:23.004Z,9.00
2017-12-11T14:52:49.708Z,10.40
2017-12-11T14:55:16.441Z,10.77
2017-12-11T14:57:43.126Z,10.13
2017-12-11T15:00:09.831Z,9.25
2017-12-11T15:02:36.503Z,9.80
2017-12-11T15:05:03.214Z,12.15
2017-12-11T15:07:30.154Z,12.57
2017-12-11T15:09:56.864Z,14.98
2017-12-11T15:12:23.544Z,13.27
2017-12-11T15:14:50.254Z,12.35
2017-12-11T15:17:16.935Z,13.88
2017-12-11T15:19:43.619Z,16.37
2017-12-11T15:22:10.323Z,13.05
2017-12-11T15:24:37.014Z,10.45
2017-12-11T15:27:03.728Z,9.98
2017-12-11T15:29:30.640Z,10.52
2017-12-11T15:31:57.355Z,11.27
2017-12-11T15:34:24.034Z,11.23
2017-12-11T15:36:51.075Z,10.68
2017-12-11T15:39:18.238Z,11.30
2017-12-11T15:41:44.955Z,11.35
2017-12-11T15:44:11.648Z,15.38
2017-12-11T15:46:38.650Z,12.10
2017-12-11T15:49:05.333Z,12.25
2017-12-11T15:51:32.392Z,13.70
2017-12-11T15:53:59.600Z,14.27
2017-12-11T15:56:26.571Z,11.48
2017-12-11T15:58:53.283Z,10.10
2017-12-11T16:01:19.980Z,10.73
2017-12-11T16:03:46.944Z,14.27
2017-12-11T16:06:13.639Z,12.95
2017-12-11T16:08:41.048Z,16.95
2017-12-11T16:11:07.991Z,12.63
2017-12-11T16:13:34.899Z,15.90
2017-12-11T16:16:01.620Z,13.15
2017-12-11T16:18:28.615Z,16.60
2017-12-11T16:20:55.330Z,15.13
2017-12-11T16:23:22.364Z,13.85
2017-12-11T16:25:49.074Z,14.30
2017-12-11T16:28:15.778Z,13.43
2017-12-11T16:30:42.732Z,11.82
2017-12-11T16:33:09.778Z,11.55
2017-12-11T16:35:36.483Z,10.95
2017-12-11T16:38:03.551Z,10.80
2017-12-11T16:40:30.611Z,14.30
2017-12-11T16:42:57.309Z,13.95
2017-12-11T16:45:24.247Z,14.73
2017-12-11T16:47:51.155Z,10.02
2017-12-11T16:50:18.083Z,13.25
2017-12-11T16:52:44.775Z,12.50
2017-12-11T16:55:12.471Z,10.20
2017-12-11T16:57:39.158Z,12.77
2017-12-11T17:00:06.228Z,11.35
2017-12-11T17:02:32.920Z,10.80
2017-12-11T17:05:00.192Z,10.70
2017-12-11T17:07:27.116Z,10.68
2017-12-11T17:09:54.048Z,10.98
2017-12-11T17:12:20.746Z,12.13
2017-12-11T17:14:47.468Z,10.38
2017-12-11T17:17:14.442Z,11.52
2017-12-11T17:19:41.154Z,12.10
2017-12-11T17:22:08.260Z,9.60
2017-12-11T17:24:35.795Z,10.02
2017-12-11T17:27:02.948Z,9.85
2017-12-11T17:29:29.647Z,10.52
2017-12-11T17:31:56.356Z,10.18
2017-12-11T17:34:23.040Z,9.98
2017-12-11T17:36:50.944Z,10.93
2017-12-11T17:39:18.009Z,10.55
2017-12-11T17:41:44.959Z,10.15
2017-12-11T17:44:12.592Z,16.50
2017-12-11T17:46:39.639Z,10.45
2017-12-11T17:49:06.681Z,10.20
2017-12-11T17:51:33.934Z,9.85
2017-12-11T17:54:00.628Z,11.02
2017-12-11T17:56:27.812Z,8.07
2017-12-11T17:58:54.956Z,8.85
2017-12-11T18:01:21.900Z,7.22
2017-12-11T18:03:48.581Z,8.18
2017-12-11T18:06:15.519Z,8.45
2017-12-11T18:08:42.803Z,8.88
2017-12-11T18:11:11.968Z,9.35
2017-12-11T18:13:38.749Z,8.73
2017-12-11T18:16:06.279Z,8.35
2017-12-11T18:18:34.275Z,7.75
2017-12-11T18:21:07.013Z,33.92
2017-12-11T18:23:34.639Z,20.33
2017-12-11T18:28:40.570Z,6.12
2017-12-11T18:31:08.900Z,9.20
2017-12-11T18:33:36.361Z,8.35
2017-12-11T18:36:04.520Z,7.32
2017-12-11T18:38:32.297Z,7.20
2017-12-11T18:41:00.117Z,9.07
2017-12-11T18:43:27.172Z,7.75
2017-12-11T18:45:54.765Z,8.02
2017-12-11T18:48:28.521Z,7.50
2017-12-11T18:50:55.569Z,6.28
2017-12-11T18:53:22.401Z,6.32
2017-12-11T18:55:49.149Z,6.20
2017-12-11T18:58:15.887Z,5.80
2017-12-11T19:00:43.835Z,6.28
2017-12-11T19:03:10.776Z,6.65
2017-12-11T19:05:38.629Z,5.65
2017-12-11T19:08:05.997Z,5.22
2017-12-11T19:10:33.361Z,5.57
2017-12-11T19:13:00.469Z,6.20
2017-12-11T19:15:27.931Z,6.75
2017-12-11T19:17:55.536Z,6.20
2017-12-11T19:20:22.730Z,6.47
2017-12-11T19:22:49.432Z,6.72
2017-12-11T19:25:17.658Z,4.90
2017-12-11T19:27:45.095Z,5.50
2017-12-11T19:30:12.452Z,5.15
2017-12-11T19:32:40.331Z,3.80
2017-12-11T19:35:08.441Z,4.55
2017-12-11T19:37:35.744Z,3.85
2017-12-11T19:40:02.908Z,4.00
2017-12-11T19:42:29.858Z,3.97
2017-12-11T19:44:56.852Z,4.47
2017-12-11T19:47:23.803Z,4.32
2017-12-11T19:49:50.511Z,3.53
2017-12-11T19:52:17.307Z,3.60
2017-12-11T19:54:44.021Z,3.00
2017-12-11T19:57:11.899Z,3.30
2017-12-11T20:02:12.355Z,3.25
2017-12-11T20:04:43.581Z,4.62
2017-12-11T20:07:10.520Z,3.33
2017-12-11T20:09:37.435Z,3.50
2017-12-11T20:12:04.718Z,2.80
2017-12-11T20:14:32.040Z,3.47
2017-12-11T20:17:00.657Z,2.65
2017-12-11T20:19:28.001Z,2.42
2017-12-11T20:21:55.711Z,2.55
2017-12-11T20:26:57.161Z,8.98
2017-12-11T20:29:24.684Z,2.95
2017-12-11T20:31:51.858Z,2.33
2017-12-11T20:34:18.791Z,2.10
2017-12-11T20:36:45.962Z,2.47
2017-12-11T20:39:15.083Z,2.55
2017-12-11T20:41:42.239Z,3.53
2017-12-11T20:44:09.186Z,1.80
2017-12-11T20:46:38.755Z,1.80
2017-12-11T20:49:06.600Z,2.00
2017-12-11T20:51:33.572Z,1.90
2017-12-11T20:56:32.153Z,1.62
2017-12-11T20:59:01.216Z,1.52
2017-12-11T21:01:28.401Z,2.10
2017-12-11T21:03:55.589Z,2.83
2017-12-11T21:06:24.221Z,1.40
2017-12-11T21:08:53.825Z,1.87
2017-12-11T21:11:21.568Z,2.83
2017-12-11T21:13:48.465Z,2.12
2017-12-11T21:16:15.688Z,2.67
2017-12-11T21:18:43.006Z,1.62
2017-12-11T21:21:10.444Z,1.83
2017-12-11T21:23:37.908Z,5.05
2017-12-11T21:26:05.235Z,3.17
2017-12-11T21:28:32.193Z,4.22
2017-12-11T21:30:59.571Z,2.42
2017-12-11T21:33:26.607Z,2.92
2017-12-11T21:35:53.324Z,2.97
2017-12-11T21:38:21.936Z,4.90
2017-12-11T21:40:49.220Z,3.72
2017-12-11T21:43:16.378Z,3.08
2017-12-11T21:45:43.439Z,4.97
2017-12-11T21:48:11.516Z,4.80
2017-12-11T21:50:39.179Z,4.03
2017-12-11T21:53:07.232Z,4.20
2017-12-11T21:55:34.630Z,5.60
2017-12-11T21:58:01.385Z,5.12
2017-12-11T22:00:28.158Z,4.28
2017-12-11T22:02:55.131Z,3.78
2017-12-11T22:05:23.037Z,3.65
2017-12-11T22:07:49.764Z,2.70
2017-12-11T22:10:16.674Z,3.35
2017-12-11T22:12:43.610Z,3.45
2017-12-11T22:15:10.575Z,2.00
2017-12-11T22:17:37.290Z,1.15
2017-12-11T22:20:03.988Z,0.90
2017-12-11T22:22:30.767Z,1.30
2017-12-11T22:24:57.784Z,1.62
2017-12-11T22:27:29.089Z,0.90
2017-12-11T22:29:56.127Z,2.22
2017-12-11T22:32:23.523Z,1.50
2017-12-11T22:34:50.433Z,1.55
2017-12-11T22:37:20.097Z,1.10
2017-12-11T22:39:50.493Z,0.90
2017-12-11T22:42:18.759Z,0.70
2017-12-11T22:44:45.826Z,1.45
2017-12-11T22:47:14.031Z,1.85
2017-12-11T22:49:42.235Z,1.00
2017-12-11T22:52:08.968Z,1.20
2017-12-11T22:54:37.223Z,0.80
2017-12-11T22:57:03.911Z,3.25
2017-12-11T22:59:32.378Z,1.65
2017-12-11T23:01:59.106Z,1.50
2017-12-11T23:04:27.794Z,3.15
2017-12-11T23:06:58.391Z,3.70
2017-12-11T23:09:25.095Z,2.30
2017-12-11T23:11:51.883Z,2.22
2017-12-11T23:14:21.679Z,2.47
2017-12-11T23:16:48.724Z,2.60
2017-12-11T23:19:18.601Z,3.00
2017-12-11T23:24:22.825Z,5.07
2017-12-11T23:26:57.214Z,3.47
2017-12-11T23:29:23.915Z,2.97
2017-12-11T23:34:28.123Z,2.25
2017-12-11T23:37:06.003Z,2.35
2017-12-11T23:39:33.583Z,2.20
2017-12-11T23:42:00.299Z,2.65
2017-12-11T23:44:28.475Z,2.87
2017-12-11T23:46:55.946Z,1.75
2017-12-11T23:49:26.175Z,2.60
2017-12-11T23:51:54.802Z,1.50
2017-12-11T23:54:27.366Z,2.20
2017-12-11T23:56:54.076Z,1.95
2017-12-11T23:59:20.830Z,1.40
